Terminal Aerodrome Forecast
Issued by NWS

Home | Current Version | Previous Version | Text Only | Print | Product List | Glossary On
Versions: 1 2 3 4 5 6 7 8 9 10 11 12 13 14 15 16 17 18
000
FTUS42 TJSJ 280543
TAFJBQ
TAF
TJBQ 280543Z 2806/2906 10010KT P6SM VCSH SCT020 SCT030 SCT060
     FM281400 09014KT P6SM FEW025
     FM281700 09016G25KT P6SM -SHRA VCTS SCT025CB BKN040 BKN060
     FM282300 09009KT P6SM FEW025 SCT060=

USA.gov is the U.S. government's official web portal to all federal, state and local government web resources and services.